createdAt,value
2018-06-14T00:00:16.934Z,2.90
2018-06-14T00:02:46.407Z,3.23
2018-06-14T00:05:15.704Z,3.53
2018-06-14T00:07:45.153Z,2.97
2018-06-14T00:10:14.505Z,2.90
2018-06-14T00:12:43.874Z,3.27
2018-06-14T00:15:13.214Z,3.30
2018-06-14T00:17:42.534Z,3.50
2018-06-14T00:20:11.885Z,2.90
2018-06-14T00:22:41.233Z,3.83
2018-06-14T00:25:10.565Z,3.60
2018-06-14T00:27:39.921Z,2.80
2018-06-14T00:30:09.209Z,3.40
2018-06-14T00:32:38.606Z,3.40
2018-06-14T00:35:07.931Z,3.40
2018-06-14T00:37:37.272Z,3.20
2018-06-14T00:40:06.613Z,3.50
2018-06-14T00:42:35.997Z,4.00
2018-06-14T00:45:05.439Z,3.53
2018-06-14T00:47:34.835Z,3.63
2018-06-14T00:50:04.481Z,3.70
2018-06-14T00:52:33.802Z,3.03
2018-06-14T00:55:03.189Z,3.67
2018-06-14T00:57:33.216Z,3.50
2018-06-14T01:00:02.581Z,3.80
2018-06-14T01:02:32.665Z,3.40
2018-06-14T01:05:02.202Z,3.60
2018-06-14T01:07:31.485Z,3.80
2018-06-14T01:10:00.953Z,3.73
2018-06-14T01:12:30.287Z,3.40
2018-06-14T01:14:59.620Z,3.57
2018-06-14T01:17:28.998Z,3.17
2018-06-14T01:19:58.451Z,3.30
2018-06-14T01:22:27.755Z,3.47
2018-06-14T01:24:57.261Z,3.30
2018-06-14T01:27:26.568Z,3.70
2018-06-14T01:29:55.937Z,4.10
2018-06-14T01:32:25.254Z,4.10
2018-06-14T01:34:54.577Z,4.03
2018-06-14T01:37:35.194Z,3.97
2018-06-14T01:40:04.586Z,4.40
2018-06-14T01:42:33.880Z,4.10
2018-06-14T01:45:03.285Z,4.43
2018-06-14T01:47:32.604Z,4.60
2018-06-14T01:50:01.923Z,4.33
2018-06-14T01:52:31.254Z,4.23
2018-06-14T01:55:00.613Z,3.47
2018-06-14T01:57:29.909Z,4.07
2018-06-14T01:59:59.266Z,3.77
2018-06-14T02:02:39.786Z,4.13
2018-06-14T02:05:09.087Z,3.90
2018-06-14T02:07:38.370Z,3.90
2018-06-14T02:10:07.662Z,4.20
2018-06-14T02:12:36.975Z,4.67
2018-06-14T02:15:06.449Z,4.40
2018-06-14T02:17:35.761Z,4.00
2018-06-14T02:20:05.727Z,3.43
2018-06-14T02:22:35.144Z,4.17
2018-06-14T02:25:04.587Z,4.13
2018-06-14T02:27:33.879Z,4.23
2018-06-14T02:30:03.246Z,4.60
2018-06-14T02:32:32.579Z,4.00
2018-06-14T02:35:01.852Z,4.10
2018-06-14T02:37:34.703Z,4.70
2018-06-14T02:40:04.764Z,4.13
2018-06-14T02:42:34.239Z,4.10
2018-06-14T02:45:03.748Z,4.17
2018-06-14T02:47:33.191Z,4.50
2018-06-14T02:50:02.598Z,4.37
2018-06-14T02:52:31.984Z,4.67
2018-06-14T02:55:02.398Z,4.50
2018-06-14T02:57:31.799Z,4.23
2018-06-14T03:00:01.120Z,4.37
2018-06-14T03:02:30.535Z,4.63
2018-06-14T03:04:59.883Z,4.67
2018-06-14T03:07:34.956Z,4.57
2018-06-14T03:10:05.396Z,4.07
2018-06-14T03:12:34.744Z,4.53
2018-06-14T03:15:04.207Z,4.87
2018-06-14T03:17:33.592Z,4.40
2018-06-14T03:20:02.937Z,3.87
2018-06-14T03:22:32.286Z,4.80
2018-06-14T03:25:01.717Z,4.43
2018-06-14T03:27:30.994Z,4.73
2018-06-14T03:30:00.439Z,5.07
2018-06-14T03:32:29.876Z,5.10
2018-06-14T03:34:59.173Z,5.10
2018-06-14T03:37:28.466Z,5.10
2018-06-14T03:39:57.811Z,4.70
2018-06-14T03:42:27.168Z,5.07
2018-06-14T03:44:56.540Z,5.00
2018-06-14T03:47:25.829Z,4.83
2018-06-14T03:49:55.163Z,4.20
2018-06-14T03:52:24.485Z,4.43
2018-06-14T03:54:54.870Z,5.00
2018-06-14T03:57:24.173Z,4.40
2018-06-14T03:59:53.455Z,4.43
2018-06-14T04:02:22.756Z,5.40
2018-06-14T04:04:51.813Z,4.90
2018-06-14T04:07:20.994Z,4.70
2018-06-14T04:09:50.316Z,5.33
2018-06-14T04:12:19.624Z,4.90
2018-06-14T04:14:48.930Z,4.37
2018-06-14T04:17:19.375Z,4.27
2018-06-14T04:19:48.608Z,4.83
2018-06-14T04:22:19.102Z,4.30
2018-06-14T04:24:48.498Z,5.10
2018-06-14T04:27:17.919Z,5.07
2018-06-14T04:29:47.356Z,4.97
2018-06-14T04:32:16.660Z,5.50
2018-06-14T04:34:46.042Z,4.90
2018-06-14T04:37:15.359Z,4.90
2018-06-14T04:39:44.701Z,5.27
2018-06-14T04:42:14.052Z,5.03
2018-06-14T04:44:43.355Z,5.20
2018-06-14T04:47:12.765Z,4.90
2018-06-14T04:49:42.087Z,5.10
2018-06-14T04:52:11.408Z,5.43
2018-06-14T04:54:41.814Z,5.77
2018-06-14T04:57:11.123Z,5.10
2018-06-14T04:59:40.487Z,5.60
2018-06-14T05:02:09.799Z,5.47
2018-06-14T05:04:39.203Z,5.83
2018-06-14T05:07:08.531Z,5.30
2018-06-14T05:09:37.875Z,6.50
2018-06-14T05:12:07.316Z,6.10
2018-06-14T05:14:36.587Z,5.90
2018-06-14T05:17:05.915Z,5.90
2018-06-14T05:19:35.214Z,5.60
2018-06-14T05:22:04.601Z,5.77
2018-06-14T05:24:33.877Z,5.67
2018-06-14T05:27:03.273Z,5.00
2018-06-14T05:29:32.594Z,4.60
2018-06-14T06:54:01.789Z,5.10
2018-06-14T06:56:31.128Z,4.47
2018-06-14T06:59:00.484Z,4.80
2018-06-14T07:01:29.756Z,5.33
2018-06-14T07:03:59.123Z,4.90
2018-06-14T07:06:28.478Z,4.03
2018-06-14T07:08:57.787Z,4.73
2018-06-14T07:11:27.204Z,4.50
2018-06-14T07:13:56.488Z,4.30
2018-06-14T07:16:25.795Z,3.60
2018-06-14T07:18:55.141Z,3.80
2018-06-14T07:21:24.121Z,3.53
2018-06-14T07:23:53.298Z,4.23
2018-06-14T07:26:22.624Z,3.63
2018-06-14T07:28:51.719Z,3.93
2018-06-14T07:31:20.899Z,3.63
2018-06-14T07:33:50.202Z,3.13
2018-06-14T07:36:19.473Z,3.47
2018-06-14T07:38:48.886Z,2.97
2018-06-14T07:41:18.222Z,3.60
2018-06-14T07:43:47.576Z,2.90
2018-06-14T07:46:16.962Z,3.20
2018-06-14T07:48:46.303Z,2.53
2018-06-14T07:51:15.614Z,2.37
2018-06-14T07:53:44.956Z,2.10
2018-06-14T07:56:14.319Z,2.43
2018-06-14T07:58:43.687Z,2.20
2018-06-14T08:01:13.039Z,2.33
2018-06-14T08:03:42.432Z,2.00
2018-06-14T08:06:11.700Z,2.43
2018-06-14T08:08:41.175Z,2.60
2018-06-14T08:11:10.509Z,2.53
2018-06-14T08:13:40.083Z,2.53
2018-06-14T08:16:09.483Z,2.70
2018-06-14T08:18:38.754Z,2.40
2018-06-14T08:21:08.052Z,2.77
2018-06-14T08:23:37.328Z,2.50
2018-06-14T08:26:06.687Z,2.60
2018-06-14T08:28:36.008Z,2.60
2018-06-14T08:31:05.324Z,2.40
2018-06-14T08:33:34.607Z,2.23
2018-06-14T08:36:04.010Z,1.87
2018-06-14T08:38:33.279Z,2.23
2018-06-14T08:41:02.620Z,1.70
2018-06-14T08:43:31.896Z,2.13
2018-06-14T08:46:01.319Z,1.93
2018-06-14T08:48:30.687Z,2.77
2018-06-14T08:50:59.988Z,2.00
2018-06-14T08:53:29.289Z,1.90
2018-06-14T08:55:58.669Z,2.57
2018-06-14T08:58:28.008Z,3.03
2018-06-14T09:00:57.348Z,2.70
2018-06-14T09:03:26.622Z,2.40
2018-06-14T09:05:55.936Z,2.20
2018-06-14T09:08:25.259Z,2.13
2018-06-14T09:10:54.584Z,2.47
2018-06-14T09:13:23.909Z,3.30
2018-06-14T09:15:53.196Z,2.33
2018-06-14T14:56:40.659Z,2.23
2018-06-14T14:59:10.093Z,1.93
2018-06-14T15:01:40.560Z,1.73
2018-06-14T15:04:09.972Z,1.60
2018-06-14T15:06:39.497Z,2.20
2018-06-14T15:09:10.986Z,2.07
2018-06-14T15:11:40.460Z,1.73
2018-06-14T15:14:09.932Z,2.00
2018-06-14T15:16:39.368Z,2.10
2018-06-14T15:19:08.627Z,1.97
2018-06-14T15:21:37.930Z,1.57
2018-06-14T15:24:07.312Z,2.20
2018-06-14T15:26:36.659Z,2.03
2018-06-14T15:29:07.054Z,1.60
2018-06-14T15:31:36.460Z,1.77
2018-06-14T15:34:05.908Z,2.07
2018-06-14T15:36:37.321Z,1.60
2018-06-14T15:39:08.006Z,1.80
2018-06-14T15:41:38.093Z,1.50
2018-06-14T15:44:07.315Z,2.20
2018-06-14T15:46:36.679Z,2.27
2018-06-14T15:49:06.559Z,1.93
2018-06-14T15:51:36.373Z,1.57
2018-06-14T15:54:05.964Z,1.73
2018-06-14T15:56:39.080Z,2.27
2018-06-14T15:59:09.789Z,2.10
2018-06-14T16:01:39.197Z,2.33
2018-06-14T16:04:08.848Z,2.03
2018-06-14T16:06:38.189Z,1.83
2018-06-14T16:09:08.649Z,2.20
2018-06-14T16:11:38.093Z,1.70
2018-06-14T16:14:07.598Z,1.97
2018-06-14T16:16:37.041Z,2.30
2018-06-14T16:19:06.384Z,2.03
2018-06-14T16:21:35.744Z,1.97
2018-06-14T16:24:06.149Z,1.97
2018-06-14T16:26:36.655Z,1.80
2018-06-14T16:29:05.928Z,1.90
2018-06-14T16:31:39.968Z,1.80
2018-06-14T16:34:09.355Z,2.00
2018-06-14T16:36:38.736Z,2.60
2018-06-14T16:39:08.920Z,2.13
2018-06-14T16:41:38.267Z,2.00
2018-06-14T16:44:15.327Z,2.03
2018-06-14T16:46:44.653Z,2.03
2018-06-14T16:49:13.940Z,2.00
2018-06-14T16:51:43.289Z,1.80
2018-06-14T16:54:12.668Z,2.10
2018-06-14T16:56:42.068Z,1.87
2018-06-14T16:59:11.455Z,1.90
2018-06-14T17:01:41.772Z,2.53
2018-06-14T17:04:11.849Z,2.10
2018-06-14T17:06:41.061Z,2.03
2018-06-14T17:09:11.515Z,2.30
2018-06-14T17:11:41.889Z,2.63
2018-06-14T17:14:11.243Z,2.20
2018-06-14T17:16:41.556Z,2.20
2018-06-14T17:19:10.840Z,2.83
2018-06-14T17:21:40.122Z,2.40
2018-06-14T17:24:10.506Z,2.80
2018-06-14T17:26:40.880Z,2.40
2018-06-14T17:29:10.218Z,2.30
2018-06-14T17:31:39.689Z,3.00
2018-06-14T17:34:09.056Z,2.70
2018-06-14T17:36:38.348Z,2.73
2018-06-14T17:39:08.012Z,2.53
2018-06-14T17:41:37.547Z,3.00
2018-06-14T17:44:06.867Z,2.80
2018-06-14T17:46:36.152Z,3.87
2018-06-14T17:49:05.545Z,3.00
2018-06-14T17:51:34.843Z,2.90
2018-06-14T17:54:04.168Z,3.00
2018-06-14T17:56:33.526Z,2.73
2018-06-14T17:59:02.832Z,2.70
2018-06-14T18:01:32.202Z,3.17
2018-06-14T18:04:01.513Z,2.70
2018-06-14T18:06:30.825Z,2.77
2018-06-14T18:09:00.106Z,2.80
2018-06-14T18:11:29.496Z,2.30
2018-06-14T18:13:58.892Z,2.70
2018-06-14T18:16:28.248Z,2.50
2018-06-14T18:18:57.600Z,3.30
2018-06-14T18:21:29.032Z,3.30
2018-06-14T18:23:58.339Z,3.70
2018-06-14T18:26:27.618Z,3.03
2018-06-14T18:28:56.933Z,2.80
2018-06-14T18:31:26.263Z,3.40
2018-06-14T18:33:55.646Z,3.30
2018-06-14T18:36:25.049Z,3.00
2018-06-14T18:38:54.438Z,3.10
2018-06-14T18:41:23.798Z,3.57
2018-06-14T18:43:53.084Z,3.40
2018-06-14T18:46:22.408Z,3.70
2018-06-14T18:48:53.013Z,3.77
2018-06-14T18:51:22.415Z,4.10
2018-06-14T18:53:51.783Z,3.73
2018-06-14T18:56:21.148Z,3.47
2018-06-14T18:58:52.600Z,3.40
2018-06-14T19:01:22.701Z,3.37
2018-06-14T19:03:52.512Z,3.50
2018-06-14T19:06:22.410Z,3.17
2018-06-14T19:08:51.727Z,3.93
2018-06-14T19:11:21.159Z,4.10
2018-06-14T19:13:50.534Z,3.70
2018-06-14T19:16:19.826Z,3.70
2018-06-14T19:18:49.148Z,4.00
2018-06-14T19:21:18.562Z,4.50
2018-06-14T19:23:47.840Z,4.27
2018-06-14T19:26:17.290Z,3.60
2018-06-14T19:28:48.633Z,4.73
2018-06-14T19:31:18.017Z,3.63
2018-06-14T19:33:47.438Z,4.10
2018-06-14T19:36:16.773Z,3.77
2018-06-14T19:38:46.106Z,3.80
2018-06-14T19:41:15.463Z,4.70
2018-06-14T19:43:44.774Z,4.70
2018-06-14T19:46:13.843Z,4.40
2018-06-14T19:48:43.135Z,4.30
2018-06-14T19:51:12.487Z,4.80
2018-06-14T19:53:41.867Z,4.60
2018-06-14T19:56:11.359Z,4.87
2018-06-14T19:58:41.716Z,4.87
2018-06-14T20:01:11.171Z,5.17
2018-06-14T20:03:40.473Z,4.60
2018-06-14T20:06:09.800Z,4.30
2018-06-14T20:08:39.051Z,4.87
2018-06-14T20:11:08.411Z,5.17
2018-06-14T20:13:37.710Z,5.10
2018-06-14T20:16:07.084Z,4.93
2018-06-14T20:18:36.367Z,5.63
2018-06-14T20:21:05.754Z,4.40
2018-06-14T20:23:35.017Z,5.50
2018-06-14T20:26:04.345Z,5.40
2018-06-14T20:28:33.617Z,5.90
2018-06-14T20:31:03.063Z,5.50
2018-06-14T20:33:32.335Z,5.63
2018-06-14T20:36:01.657Z,5.47
2018-06-14T20:38:30.999Z,5.40
2018-06-14T20:41:00.380Z,5.80
2018-06-14T20:43:29.703Z,5.90
2018-06-14T20:45:59.113Z,5.80
2018-06-14T20:48:28.372Z,5.53
2018-06-14T20:51:00.921Z,6.53
2018-06-14T20:53:31.175Z,8.80
2018-06-14T20:56:00.632Z,8.67
2018-06-14T20:58:29.923Z,7.23
2018-06-14T21:00:59.270Z,8.10
2018-06-14T21:03:28.578Z,7.50
2018-06-14T21:05:57.888Z,7.67
2018-06-14T21:08:27.252Z,7.80
2018-06-14T21:10:56.586Z,7.80
2018-06-14T21:13:25.876Z,6.80
2018-06-14T21:15:55.257Z,7.90
2018-06-14T21:18:24.512Z,7.70
2018-06-14T21:20:53.798Z,7.80
2018-06-14T21:23:23.173Z,7.90
2018-06-14T21:25:52.448Z,7.50
2018-06-14T21:28:21.800Z,7.37
2018-06-14T21:30:51.059Z,7.40
2018-06-14T21:33:20.434Z,8.03
2018-06-14T21:35:49.806Z,7.40
2018-06-14T21:38:19.097Z,8.03
2018-06-14T21:40:48.355Z,7.43
2018-06-14T21:43:17.765Z,7.93
2018-06-14T21:45:47.016Z,7.90
2018-06-14T21:48:16.324Z,7.30
2018-06-14T21:50:45.592Z,8.67
2018-06-14T21:53:14.937Z,7.47
2018-06-14T21:55:44.320Z,7.80
2018-06-14T21:58:13.334Z,7.43
2018-06-14T22:00:42.530Z,7.17
2018-06-14T22:03:17.409Z,8.00
2018-06-14T22:05:46.697Z,7.77
2018-06-14T22:08:16.011Z,7.70
2018-06-14T22:10:45.298Z,8.40
2018-06-14T22:13:14.575Z,7.47
2018-06-14T22:15:44.226Z,8.13
2018-06-14T22:18:13.735Z,8.27
2018-06-14T22:20:43.016Z,7.70
2018-06-14T22:23:12.344Z,8.00
2018-06-14T22:25:41.680Z,7.30
2018-06-14T22:28:10.949Z,7.93
2018-06-14T22:30:40.267Z,7.10
2018-06-14T22:33:20.884Z,7.50
2018-06-14T22:35:51.288Z,7.60
2018-06-14T22:38:20.607Z,8.00
2018-06-14T22:40:49.933Z,8.63
2018-06-14T22:43:19.201Z,7.77
2018-06-14T22:45:48.512Z,8.53
2018-06-14T22:48:17.828Z,8.10
2018-06-14T22:51:20.405Z,8.70
2018-06-14T22:53:49.725Z,7.70
2018-06-14T22:56:19.205Z,8.07
2018-06-14T22:58:48.552Z,8.43
2018-06-14T23:01:40.864Z,7.80
2018-06-14T23:04:11.344Z,8.10
2018-06-14T23:06:40.685Z,9.57
2018-06-14T23:10:28.619Z,9.50
2018-06-14T23:12:58.061Z,8.97
2018-06-14T23:15:27.462Z,8.43
2018-06-14T23:17:56.879Z,8.80
2018-06-14T23:20:27.318Z,10.00
2018-06-14T23:22:57.558Z,9.40
2018-06-14T23:25:27.644Z,9.60
2018-06-14T23:27:57.026Z,10.13
2018-06-14T23:30:26.331Z,9.30
2018-06-14T23:32:55.667Z,9.17
2018-06-14T23:35:24.959Z,10.20
2018-06-14T23:37:54.336Z,9.57
2018-06-14T23:40:23.776Z,9.43
2018-06-14T23:42:53.073Z,9.40
2018-06-14T23:45:22.479Z,10.00
2018-06-14T23:47:51.887Z,9.17
2018-06-14T23:50:21.248Z,9.60
2018-06-14T23:52:50.592Z,8.97
2018-06-14T23:55:19.876Z,9.70
2018-06-14T23:57:49.298Z,9.33
